createdAt,value
2018-02-22T00:00:52.323Z,-0.54
2018-02-22T00:01:57.092Z,-0.60
2018-02-22T00:03:01.743Z,-0.66
2018-02-22T00:04:06.375Z,-0.67
2018-02-22T00:05:11.025Z,-0.75
2018-02-22T00:06:16.044Z,-0.76
2018-02-22T00:07:20.714Z,-0.78
2018-02-22T00:08:25.369Z,-0.83
2018-02-22T00:09:30.013Z,-0.80
2018-02-22T00:10:34.687Z,-0.78
2018-02-22T00:11:39.175Z,-0.78
2018-02-22T00:12:43.957Z,-0.77
2018-02-22T00:13:48.457Z,-0.83
2018-02-22T00:14:53.149Z,-0.83
2018-02-22T00:15:57.695Z,-0.83
2018-02-22T00:17:02.338Z,-0.81
2018-02-22T00:18:07.014Z,-0.85
2018-02-22T00:19:12.037Z,-0.87
2018-02-22T00:20:16.774Z,-0.87
2018-02-22T00:21:21.510Z,-0.86
2018-02-22T00:22:26.230Z,-0.77
2018-02-22T00:23:31.626Z,-0.81
2018-02-22T00:24:36.375Z,-0.84
2018-02-22T00:25:41.399Z,-0.74
2018-02-22T00:26:46.255Z,-0.79
2018-02-22T00:27:50.990Z,-0.86
2018-02-22T00:28:55.746Z,-0.88
2018-02-22T00:30:00.489Z,-0.87
2018-02-22T00:31:05.186Z,-0.87
2018-02-22T00:32:10.119Z,-0.84
2018-02-22T00:33:14.805Z,-0.83
2018-02-22T00:34:19.449Z,-0.82
2018-02-22T00:35:24.080Z,-0.76
2018-02-22T00:36:28.791Z,-0.75
2018-02-22T00:37:33.538Z,-0.78
2018-02-22T00:38:38.623Z,-0.81
2018-02-22T00:39:43.398Z,-0.88
2018-02-22T00:40:48.247Z,-0.89
2018-02-22T00:41:52.969Z,-0.80
2018-02-22T00:42:57.727Z,-0.70
2018-02-22T00:44:02.538Z,-0.66
2018-02-22T00:45:07.576Z,-0.74
2018-02-22T00:46:12.276Z,-0.73
2018-02-22T00:47:17.020Z,-0.80
2018-02-22T00:48:21.692Z,-0.92
2018-02-22T00:49:26.307Z,-0.96
2018-02-22T00:50:31.000Z,-0.91
2018-02-22T00:51:36.088Z,-0.93
2018-02-22T00:52:40.752Z,-0.99
2018-02-22T00:53:45.503Z,-0.98
2018-02-22T00:54:50.149Z,-0.93
2018-02-22T00:55:54.908Z,-0.99
2018-02-22T00:56:59.683Z,-1.05
2018-02-22T00:58:04.780Z,-1.07
2018-02-22T00:59:09.506Z,-1.05
2018-02-22T01:00:14.264Z,-0.97
2018-02-22T01:01:19.078Z,-1.06
2018-02-22T01:02:23.862Z,-1.01
2018-02-22T01:03:28.603Z,-0.99
2018-02-22T01:04:33.667Z,-1.03
2018-02-22T01:05:38.392Z,-0.97
2018-02-22T01:06:43.145Z,-0.94
2018-02-22T01:07:47.847Z,-0.96
2018-02-22T01:08:52.609Z,-0.86
2018-02-22T01:09:57.430Z,-0.79
2018-02-22T01:11:02.466Z,-0.77
2018-02-22T01:12:07.196Z,-0.87
2018-02-22T01:13:11.941Z,-0.79
2018-02-22T01:14:16.707Z,-0.87
2018-02-22T01:15:21.456Z,-0.87
2018-02-22T01:16:26.185Z,-0.89
2018-02-22T01:17:31.261Z,-0.87
2018-02-22T01:18:35.945Z,-0.82
2018-02-22T01:19:40.584Z,-0.86
2018-02-22T01:20:45.436Z,-0.95
2018-02-22T01:21:50.066Z,-0.94
2018-02-22T01:22:54.729Z,-0.92
2018-02-22T01:23:59.662Z,-0.87
2018-02-22T01:25:04.226Z,-0.88
2018-02-22T01:26:08.802Z,-0.83
2018-02-22T01:27:13.357Z,-0.89
2018-02-22T01:28:17.923Z,-0.88
2018-02-22T01:29:22.510Z,-0.99
2018-02-22T01:30:27.360Z,-0.84
2018-02-22T01:31:31.980Z,-0.84
2018-02-22T01:32:36.523Z,-0.90
2018-02-22T01:33:41.146Z,-0.86
2018-02-22T01:34:45.744Z,-0.93
2018-02-22T01:35:50.298Z,-0.99
2018-02-22T01:36:55.297Z,-0.94
2018-02-22T01:37:59.993Z,-0.86
2018-02-22T01:39:04.748Z,-0.79
2018-02-22T01:40:09.312Z,-0.83
2018-02-22T01:41:13.828Z,-0.92
2018-02-22T01:42:18.321Z,-0.84
2018-02-22T01:43:23.138Z,-0.81
2018-02-22T01:44:27.660Z,-0.87
2018-02-22T01:45:32.536Z,-0.83
2018-02-22T01:46:37.043Z,-0.93
2018-02-22T01:47:41.641Z,-0.94
2018-02-22T01:48:46.461Z,-0.91
2018-02-22T01:49:51.251Z,-0.93
2018-02-22T01:50:55.919Z,-0.96
2018-02-22T01:52:00.478Z,-1.03
2018-02-22T01:53:05.206Z,-1.04
2018-02-22T01:54:09.866Z,-1.03
2018-02-22T01:55:14.487Z,-1.03
2018-02-22T01:56:19.318Z,-0.94
2018-02-22T01:57:23.800Z,-0.91
2018-02-22T01:58:28.220Z,-0.93
2018-02-22T01:59:32.632Z,-0.96
2018-02-22T02:00:37.064Z,-0.99
2018-02-22T02:01:41.478Z,-0.98
2018-02-22T02:02:46.181Z,-1.02
2018-02-22T02:03:50.679Z,-1.08
2018-02-22T02:04:55.183Z,-1.01
2018-02-22T02:05:59.707Z,-1.02
2018-02-22T02:07:04.224Z,-1.05
2018-02-22T02:08:08.727Z,-1.11
2018-02-22T02:09:13.491Z,-1.16
2018-02-22T02:10:18.012Z,-1.15
2018-02-22T02:11:22.516Z,-1.16
2018-02-22T02:12:27.042Z,-1.14
2018-02-22T02:13:31.571Z,-1.13
2018-02-22T02:14:36.073Z,-0.97
2018-02-22T02:15:40.933Z,-1.00
2018-02-22T02:16:45.491Z,-1.09
2018-02-22T02:17:49.994Z,-1.05
2018-02-22T02:18:55.324Z,-1.06
2018-02-22T02:19:59.919Z,-1.00
2018-02-22T02:21:04.480Z,-0.98
2018-02-22T02:22:09.288Z,-1.09
2018-02-22T02:23:13.819Z,-1.10
2018-02-22T02:24:18.341Z,-1.03
2018-02-22T02:25:22.832Z,-0.98
2018-02-22T02:26:27.453Z,-0.97
2018-02-22T02:27:31.974Z,-1.13
2018-02-22T02:28:37.623Z,-1.21
2018-02-22T02:29:42.183Z,-1.10
2018-02-22T02:30:46.752Z,-1.11
2018-02-22T02:31:51.286Z,-1.06
2018-02-22T02:32:55.741Z,-1.07
2018-02-22T02:34:00.444Z,-1.08
2018-02-22T02:35:05.277Z,-1.07
2018-02-22T02:36:09.812Z,-1.15
2018-02-22T02:37:15.321Z,-1.27
2018-02-22T02:38:19.994Z,-1.21
2018-02-22T02:39:24.681Z,-1.20
2018-02-22T02:40:29.366Z,-1.16
2018-02-22T02:41:34.396Z,-1.13
2018-02-22T02:42:39.202Z,-1.02
2018-02-22T02:43:43.899Z,-1.06
2018-02-22T02:44:48.604Z,-1.13
2018-02-22T02:45:53.244Z,-1.19
2018-02-22T02:46:57.909Z,-1.26
2018-02-22T02:48:02.862Z,-1.14
2018-02-22T02:49:07.527Z,-1.15
2018-02-22T02:50:12.243Z,-1.20
2018-02-22T02:51:16.947Z,-1.14
2018-02-22T02:52:21.620Z,-1.14
2018-02-22T02:53:26.369Z,-1.17
2018-02-22T02:54:31.262Z,-1.20
2018-02-22T02:55:35.806Z,-1.15
2018-02-22T02:56:40.314Z,-1.26
2018-02-22T02:57:44.862Z,-1.21
2018-02-22T02:58:49.430Z,-1.22
2018-02-22T02:59:54.138Z,-1.24
2018-02-22T03:00:58.953Z,-1.22
2018-02-22T03:02:03.468Z,-1.21
2018-02-22T03:03:07.986Z,-1.27
2018-02-22T03:04:12.531Z,-1.31
2018-02-22T03:05:17.045Z,-1.36
2018-02-22T03:06:21.545Z,-1.33
2018-02-22T03:07:26.380Z,-1.40
2018-02-22T03:08:30.908Z,-1.35
2018-02-22T03:09:35.593Z,-1.40
2018-02-22T03:10:40.263Z,-1.47
2018-02-22T03:11:44.936Z,-1.42
2018-02-22T03:12:49.637Z,-1.44
2018-02-22T03:13:54.631Z,-1.39
2018-02-22T03:14:59.314Z,-1.39
2018-02-22T03:16:03.952Z,-1.40
2018-02-22T03:17:08.655Z,-1.47
2018-02-22T03:18:13.328Z,-1.36
2018-02-22T03:19:18.100Z,-1.31
2018-02-22T03:20:24.017Z,-1.36
2018-02-22T03:21:28.712Z,-1.39
2018-02-22T03:22:33.376Z,-1.35
2018-02-22T03:23:38.052Z,-1.35
2018-02-22T03:24:43.676Z,-1.42
2018-02-22T03:25:48.403Z,-1.44
2018-02-22T03:26:53.385Z,-1.36
2018-02-22T03:27:58.031Z,-1.40
2018-02-22T03:29:02.766Z,-1.43
2018-02-22T03:30:07.485Z,-1.51
2018-02-22T03:31:12.252Z,-1.52
2018-02-22T03:32:16.979Z,-1.49
2018-02-22T03:33:21.768Z,-1.44
2018-02-22T03:34:26.275Z,-1.50
2018-02-22T03:35:30.835Z,-1.57
2018-02-22T03:36:35.350Z,-1.54
2018-02-22T03:37:39.959Z,-1.50
2018-02-22T03:38:44.480Z,-1.56
2018-02-22T03:39:49.345Z,-1.48
2018-02-22T03:40:54.047Z,-1.42
2018-02-22T03:41:58.592Z,-1.49
2018-02-22T03:43:03.238Z,-1.60
2018-02-22T03:44:07.926Z,-1.65
2018-02-22T03:45:12.636Z,-1.61
2018-02-22T03:46:17.621Z,-1.57
2018-02-22T03:47:22.314Z,-1.56
2018-02-22T03:48:27.060Z,-1.56
2018-02-22T03:49:32.792Z,-1.58
2018-02-22T03:50:37.912Z,-1.62
2018-02-22T03:51:42.696Z,-1.61
2018-02-22T03:52:47.755Z,-1.63
2018-02-22T03:53:52.509Z,-1.63
2018-02-22T03:54:57.290Z,-1.56
2018-02-22T03:56:02.093Z,-1.64
2018-02-22T03:57:06.841Z,-1.65
2018-02-22T03:58:11.672Z,-1.65
2018-02-22T03:59:16.728Z,-1.68
2018-02-22T04:00:21.515Z,-1.63
2018-02-22T04:01:27.047Z,-1.57
2018-02-22T04:02:31.727Z,-1.59
2018-02-22T04:03:36.465Z,-1.66
2018-02-22T04:04:41.190Z,-1.68
2018-02-22T04:05:46.287Z,-1.64
2018-02-22T04:06:50.951Z,-1.57
2018-02-22T04:07:55.656Z,-1.59
2018-02-22T04:09:00.328Z,-1.52
2018-02-22T04:10:05.012Z,-1.58
2018-02-22T04:11:09.655Z,-1.58
2018-02-22T04:12:14.309Z,-1.58
2018-02-22T04:13:19.043Z,-1.59
2018-02-22T04:14:23.818Z,-1.58
2018-02-22T04:15:28.659Z,-1.56
2018-02-22T04:16:33.441Z,-1.53
2018-02-22T04:17:38.449Z,-1.65
2018-02-22T04:18:43.186Z,-1.61
2018-02-22T04:19:48.036Z,-1.65
2018-02-22T04:20:52.884Z,-1.70
2018-02-22T04:21:57.580Z,-1.63
2018-02-22T04:23:02.252Z,-1.58
2018-02-22T04:24:07.189Z,-1.63
2018-02-22T04:25:11.837Z,-1.71
2018-02-22T04:26:16.535Z,-1.74
2018-02-22T04:27:21.213Z,-1.72
2018-02-22T04:28:25.898Z,-1.70
2018-02-22T04:29:30.568Z,-1.70
2018-02-22T04:30:35.263Z,-1.73
2018-02-22T04:31:39.796Z,-1.71
2018-02-22T04:32:44.455Z,-1.70
2018-02-22T04:33:49.044Z,-1.61
2018-02-22T04:34:53.641Z,-1.65
2018-02-22T04:35:59.234Z,-1.68
2018-02-22T04:37:04.006Z,-1.68
2018-02-22T04:38:08.676Z,-1.74
2018-02-22T04:39:13.399Z,-1.67
2018-02-22T04:40:18.048Z,-1.64
2018-02-22T04:41:22.752Z,-1.64
2018-02-22T04:42:27.731Z,-1.64
2018-02-22T04:43:34.283Z,-1.60
2018-02-22T04:44:45.644Z,-1.63
2018-02-22T04:45:50.396Z,-1.72
2018-02-22T04:46:55.005Z,-1.68
2018-02-22T04:47:59.707Z,-1.71
2018-02-22T04:49:04.681Z,-1.61
2018-02-22T04:50:09.298Z,-1.67
2018-02-22T04:51:13.945Z,-1.67
2018-02-22T04:52:18.526Z,-1.67
2018-02-22T04:53:23.108Z,-1.60
2018-02-22T04:54:27.792Z,-1.64
2018-02-22T04:55:32.757Z,-1.74
2018-02-22T04:56:37.523Z,-1.80
2018-02-22T04:57:42.977Z,-1.85
2018-02-22T04:58:47.674Z,-1.73
2018-02-22T04:59:52.382Z,-1.74
2018-02-22T05:00:57.059Z,-1.77
2018-02-22T05:02:02.089Z,-1.68
2018-02-22T05:03:06.833Z,-1.72
2018-02-22T05:04:11.570Z,-1.70
2018-02-22T05:05:16.275Z,-1.67
2018-02-22T05:06:20.957Z,-1.69
2018-02-22T05:07:25.691Z,-1.75
2018-02-22T05:08:30.667Z,-1.76
2018-02-22T05:09:35.404Z,-1.77
2018-02-22T05:10:40.112Z,-1.79
2018-02-22T05:11:44.820Z,-1.76
2018-02-22T05:12:49.425Z,-1.84
2018-02-22T05:13:54.017Z,-1.81
2018-02-22T05:14:58.924Z,-1.84
2018-02-22T05:16:03.528Z,-1.83
2018-02-22T05:17:08.215Z,-1.78
2018-02-22T05:18:12.908Z,-1.78
2018-02-22T05:19:17.625Z,-1.77
2018-02-22T05:20:23.286Z,-1.77
2018-02-22T05:21:28.218Z,-1.75
2018-02-22T05:22:32.936Z,-1.74
2018-02-22T05:23:37.591Z,-1.79
2018-02-22T05:24:42.307Z,-1.74
2018-02-22T05:25:46.997Z,-1.89
2018-02-22T05:26:51.840Z,-1.89
2018-02-22T05:27:56.843Z,-1.73
2018-02-22T05:29:01.620Z,-1.68
2018-02-22T05:30:06.416Z,-1.64
2018-02-22T05:31:11.194Z,-1.68
2018-02-22T05:32:15.978Z,-1.61
2018-02-22T05:33:21.067Z,-1.70
2018-02-22T05:34:26.019Z,-1.68
2018-02-22T05:35:30.808Z,-1.73
2018-02-22T05:36:35.615Z,-1.71
2018-02-22T05:37:40.398Z,-1.76
2018-02-22T05:38:45.089Z,-1.71
2018-02-22T05:39:50.057Z,-1.76
2018-02-22T05:40:54.739Z,-1.86
2018-02-22T05:41:59.604Z,-1.90
2018-02-22T05:43:04.348Z,-1.92
2018-02-22T05:44:08.963Z,-2.00
2018-02-22T05:45:13.578Z,-1.90
2018-02-22T05:46:18.796Z,-1.86
2018-02-22T05:47:23.603Z,-1.94
2018-02-22T05:48:28.400Z,-1.98
2018-02-22T05:49:33.209Z,-1.96
2018-02-22T05:50:38.016Z,-1.90
2018-02-22T05:51:42.828Z,-1.90
2018-02-22T05:52:47.567Z,-1.87
2018-02-22T05:53:52.292Z,-1.90
2018-02-22T05:54:57.045Z,-2.04
2018-02-22T05:56:01.843Z,-2.02
2018-02-22T05:57:06.670Z,-2.08
2018-02-22T05:58:11.712Z,-2.12
2018-02-22T05:59:16.374Z,-2.10
2018-02-22T06:00:21.100Z,-2.11
2018-02-22T06:01:25.805Z,-2.10
2018-02-22T06:02:30.507Z,-2.10
2018-02-22T06:03:35.195Z,-2.14
2018-02-22T06:04:40.205Z,-2.20
2018-02-22T06:05:44.942Z,-2.19
2018-02-22T06:06:49.373Z,-2.14
2018-02-22T06:07:53.802Z,-2.17
2018-02-22T06:08:58.272Z,-2.19
2018-02-22T06:10:02.966Z,-2.08
2018-02-22T06:11:08.021Z,-2.10
2018-02-22T06:12:12.684Z,-1.99
2018-02-22T06:13:17.290Z,-1.96
2018-02-22T06:14:21.970Z,-2.00
2018-02-22T06:15:26.569Z,-1.99
2018-02-22T06:16:31.193Z,-2.03
2018-02-22T06:17:35.931Z,-2.01
2018-02-22T06:18:40.527Z,-2.02
2018-02-22T06:19:45.155Z,-2.07
2018-02-22T06:20:49.813Z,-2.01
2018-02-22T06:21:54.453Z,-2.01
2018-02-22T06:22:59.392Z,-2.06
2018-02-22T06:24:04.024Z,-2.02
2018-02-22T06:25:08.682Z,-2.04
2018-02-22T06:26:13.508Z,-2.06
2018-02-22T06:27:18.245Z,-2.12
2018-02-22T06:28:22.996Z,-2.11
2018-02-22T06:29:28.131Z,-2.12
2018-02-22T06:30:32.813Z,-2.10
2018-02-22T06:31:37.559Z,-2.08
2018-02-22T06:32:42.455Z,-2.01
2018-02-22T06:33:47.306Z,-2.02
2018-02-22T06:34:52.133Z,-2.00
2018-02-22T06:35:57.362Z,-2.08
2018-02-22T06:37:02.194Z,-2.01
2018-02-22T06:38:06.952Z,-1.93
2018-02-22T06:39:11.783Z,-1.87
2018-02-22T06:40:16.526Z,-1.87
2018-02-22T06:41:21.186Z,-1.95
2018-02-22T06:42:26.109Z,-2.06
2018-02-22T06:43:30.831Z,-2.02
2018-02-22T06:44:35.469Z,-1.98
2018-02-22T06:45:40.101Z,-2.04
2018-02-22T06:46:44.690Z,-2.00
2018-02-22T06:47:49.999Z,-1.82
2018-02-22T06:48:54.862Z,-1.86
2018-02-22T06:49:59.501Z,-1.78
2018-02-22T06:51:04.201Z,-1.66
2018-02-22T06:52:08.937Z,-1.51
2018-02-22T06:53:13.683Z,-1.44
2018-02-22T06:54:18.464Z,-1.37
2018-02-22T06:55:23.612Z,-1.44
2018-02-22T06:56:28.370Z,-1.44
2018-02-22T06:57:33.202Z,-1.31
2018-02-22T06:58:38.067Z,-1.26
2018-02-22T06:59:42.929Z,-1.25
2018-02-22T07:00:47.784Z,-1.28
2018-02-22T07:01:52.872Z,-1.28
2018-02-22T07:02:57.484Z,-1.11
2018-02-22T07:04:02.272Z,-0.96
2018-02-22T07:05:07.055Z,-0.91
2018-02-22T07:06:11.868Z,-0.85
2018-02-22T07:07:16.557Z,-0.78
2018-02-22T07:08:21.681Z,-0.79
2018-02-22T07:09:26.931Z,-0.73
2018-02-22T07:10:31.711Z,-0.56
2018-02-22T07:11:36.548Z,-0.57
2018-02-22T07:12:41.292Z,-0.23
2018-02-22T07:13:46.007Z,-0.19
2018-02-22T07:14:51.007Z,-0.25
2018-02-22T07:15:55.767Z,-0.24
2018-02-22T07:17:00.457Z,-0.11
2018-02-22T07:18:05.182Z,-0.11
2018-02-22T07:19:09.889Z,-0.13
2018-02-22T07:20:14.667Z,-0.13
2018-02-22T07:21:19.690Z,-0.03
2018-02-22T07:22:24.388Z,0.06
2018-02-22T07:23:29.109Z,0.14
2018-02-22T07:24:33.810Z,0.34
2018-02-22T07:25:38.527Z,0.63
2018-02-22T07:26:43.293Z,0.66
2018-02-22T07:27:48.321Z,0.63
2018-02-22T07:28:53.054Z,0.86
2018-02-22T07:29:57.786Z,1.11
2018-02-22T07:31:02.526Z,1.06
2018-02-22T07:32:07.201Z,1.07
2018-02-22T07:33:11.904Z,1.17
2018-02-22T07:34:16.993Z,1.57
2018-02-22T07:35:21.667Z,1.57
2018-02-22T07:36:26.375Z,1.37
2018-02-22T07:37:31.107Z,1.67
2018-02-22T07:38:35.809Z,1.80
2018-02-22T07:39:40.465Z,1.72
2018-02-22T07:40:45.655Z,1.76
2018-02-22T07:41:50.163Z,1.80
2018-02-22T07:42:54.728Z,1.76
2018-02-22T07:43:59.275Z,1.78
2018-02-22T07:45:03.841Z,1.33
2018-02-22T07:46:08.691Z,1.55
2018-02-22T07:47:13.222Z,1.78
2018-02-22T07:48:17.749Z,2.08
2018-02-22T07:49:22.305Z,2.21
2018-02-22T07:50:26.892Z,2.44
2018-02-22T07:51:31.457Z,2.27
2018-02-22T07:52:36.519Z,2.34
2018-02-22T07:53:41.073Z,2.33
2018-02-22T07:54:45.758Z,2.53
2018-02-22T07:55:50.382Z,2.58
2018-02-22T07:56:54.944Z,2.78
2018-02-22T07:57:59.471Z,2.51
2018-02-22T07:59:04.351Z,2.75
2018-02-22T08:00:09.365Z,2.83
2018-02-22T08:01:13.897Z,2.59
2018-02-22T08:02:18.508Z,2.44
2018-02-22T08:04:45.392Z,3.02
2018-02-22T08:05:50.060Z,3.30
2018-02-22T08:06:54.771Z,3.38
2018-02-22T08:07:59.620Z,3.71
2018-02-22T08:09:05.137Z,3.76
2018-02-22T08:10:09.971Z,2.99
2018-02-22T08:11:14.954Z,3.42
2018-02-22T08:12:19.721Z,2.92
2018-02-22T08:13:24.538Z,2.95
2018-02-22T08:14:29.351Z,3.68
2018-02-22T08:15:33.993Z,4.09
2018-02-22T08:16:38.561Z,3.57
2018-02-22T08:17:43.403Z,3.46
2018-02-22T08:18:48.123Z,3.62
2018-02-22T08:19:52.931Z,4.12
2018-02-22T08:20:57.597Z,4.06
2018-02-22T08:22:02.943Z,3.89
2018-02-22T08:23:07.690Z,3.74
2018-02-22T08:24:12.888Z,3.72
2018-02-22T08:25:17.749Z,4.11
2018-02-22T08:26:22.551Z,4.47
2018-02-22T08:27:27.283Z,4.89
2018-02-22T08:28:32.049Z,4.96
2018-02-22T08:29:36.797Z,5.15
2018-02-22T08:30:41.947Z,4.68
2018-02-22T08:31:46.685Z,4.41
2018-02-22T08:32:51.382Z,3.63
2018-02-22T08:33:56.512Z,4.06
2018-02-22T08:35:01.340Z,3.48
2018-02-22T08:36:06.221Z,3.30
2018-02-22T08:37:11.304Z,3.27
2018-02-22T08:38:16.129Z,3.69
2018-02-22T08:39:21.040Z,4.41
2018-02-22T08:40:25.805Z,4.89
2018-02-22T08:41:30.658Z,4.95
2018-02-22T08:42:35.549Z,4.39
2018-02-22T08:43:40.652Z,4.45
2018-02-22T08:44:45.492Z,4.41
2018-02-22T08:45:50.270Z,3.66
2018-02-22T08:46:55.096Z,3.21
2018-02-22T08:47:59.924Z,3.58
2018-02-22T08:49:04.786Z,3.88
2018-02-22T08:50:09.572Z,4.09
2018-02-22T08:51:14.382Z,3.97
2018-02-22T08:52:19.185Z,3.47
2018-02-22T08:53:23.918Z,4.46
2018-02-22T08:54:28.683Z,4.42
2018-02-22T08:55:34.015Z,4.40
2018-02-22T08:56:38.767Z,3.93
2018-02-22T08:57:43.708Z,4.34
2018-02-22T08:58:48.608Z,4.36
2018-02-22T08:59:53.553Z,4.39
2018-02-22T09:00:58.804Z,3.37
2018-02-22T09:02:04.176Z,2.25
2018-02-22T09:03:09.071Z,2.11
2018-02-22T09:04:14.063Z,2.66
2018-02-22T09:05:18.892Z,1.99
2018-02-22T09:06:24.293Z,1.81
2018-02-22T09:07:30.263Z,1.97
2018-02-22T09:08:35.899Z,2.87
2018-02-22T09:09:40.831Z,2.94
2018-02-22T09:10:45.679Z,3.46
2018-02-22T09:11:50.712Z,3.67
2018-02-22T09:12:56.024Z,3.67
2018-02-22T09:14:00.725Z,3.23
2018-02-22T09:15:06.478Z,3.92
2018-02-22T09:16:11.147Z,3.98
2018-02-22T09:17:15.780Z,2.95
2018-02-22T09:18:20.978Z,2.89
2018-02-22T09:19:25.763Z,2.89
2018-02-22T09:20:30.523Z,3.27
2018-02-22T09:21:36.300Z,3.48
2018-02-22T09:22:41.214Z,3.10
2018-02-22T09:23:47.267Z,2.89
2018-02-22T09:24:52.147Z,2.44
2018-02-22T09:25:57.002Z,1.99
2018-02-22T09:27:01.770Z,2.34
2018-02-22T09:28:06.920Z,2.06
2018-02-22T09:29:11.763Z,2.07
2018-02-22T09:30:16.876Z,1.88
2018-02-22T09:31:21.580Z,1.15
2018-02-22T09:32:26.265Z,0.81
2018-02-22T09:33:31.837Z,0.85
2018-02-22T09:34:37.027Z,1.92
2018-02-22T09:35:41.814Z,2.11
2018-02-22T09:36:46.693Z,2.17
2018-02-22T09:37:51.453Z,2.07
2018-02-22T09:38:56.183Z,2.05
2018-02-22T09:40:01.132Z,1.07
2018-02-22T09:41:06.292Z,0.91
2018-02-22T09:42:11.073Z,1.10
2018-02-22T09:43:15.903Z,1.31
2018-02-22T09:44:21.263Z,1.02
2018-02-22T09:45:26.124Z,0.88
2018-02-22T09:46:31.095Z,2.03
2018-02-22T09:47:35.922Z,1.31
2018-02-22T09:48:40.733Z,2.50
2018-02-22T09:49:45.532Z,2.72
2018-02-22T09:50:50.409Z,2.64
2018-02-22T09:51:55.895Z,3.36
2018-02-22T09:53:01.144Z,3.35
2018-02-22T09:54:05.811Z,3.20
2018-02-22T09:55:10.580Z,2.93
2018-02-22T09:56:15.309Z,3.49
2018-02-22T09:57:20.036Z,3.96
2018-02-22T09:58:24.759Z,3.92
2018-02-22T09:59:29.963Z,4.19
2018-02-22T10:00:34.734Z,4.37
2018-02-22T10:01:39.488Z,4.81
2018-02-22T10:02:44.196Z,4.00
2018-02-22T10:03:48.947Z,4.18
2018-02-22T10:04:53.556Z,3.67
2018-02-22T10:05:58.293Z,3.95
2018-02-22T10:07:02.813Z,5.11
2018-02-22T10:08:07.336Z,4.79
2018-02-22T10:09:11.906Z,4.44
2018-02-22T10:10:16.500Z,3.18
2018-02-22T10:11:21.055Z,3.49
2018-02-22T10:12:25.601Z,3.88
2018-02-22T10:13:30.126Z,3.62
2018-02-22T10:14:34.680Z,3.58
2018-02-22T10:15:39.926Z,3.58
2018-02-22T10:16:44.925Z,4.17
2018-02-22T10:17:49.646Z,3.22
2018-02-22T10:18:54.311Z,2.75
2018-02-22T10:19:58.950Z,2.61
2018-02-22T10:21:03.589Z,3.08
2018-02-22T10:22:08.283Z,3.13
2018-02-22T10:23:13.507Z,2.93
2018-02-22T10:24:18.296Z,3.78
2018-02-22T10:25:23.145Z,3.64
2018-02-22T10:26:27.966Z,4.15
2018-02-22T10:27:32.969Z,3.92
2018-02-22T10:28:38.597Z,3.95
2018-02-22T10:29:43.656Z,4.35
2018-02-22T10:30:48.368Z,3.90
2018-02-22T10:31:53.089Z,3.51
2018-02-22T10:32:57.803Z,3.53
2018-02-22T10:34:02.661Z,3.65
2018-02-22T10:35:07.410Z,4.12
2018-02-22T10:36:12.448Z,3.48
2018-02-22T10:37:17.190Z,3.14
2018-02-22T10:38:22.020Z,4.08
2018-02-22T10:39:26.809Z,4.29
2018-02-22T10:40:31.669Z,4.48
2018-02-22T10:41:37.027Z,5.08
2018-02-22T10:42:42.648Z,4.83
2018-02-22T10:43:47.878Z,4.80
2018-02-22T10:44:53.070Z,4.66
2018-02-22T10:45:58.205Z,5.26
2018-02-22T10:47:03.293Z,4.59
2018-02-22T10:48:08.531Z,4.09
2018-02-22T10:49:14.215Z,4.22
2018-02-22T10:50:19.486Z,4.39
2018-02-22T10:51:24.834Z,4.20
2018-02-22T10:52:30.395Z,4.13
2018-02-22T10:53:35.649Z,4.86
2018-02-22T10:54:41.048Z,5.51
2018-02-22T10:55:46.686Z,6.11
2018-02-22T10:56:51.959Z,6.70
2018-02-22T10:57:56.964Z,7.66
2018-02-22T10:59:02.097Z,7.27
2018-02-22T11:00:07.274Z,6.60
2018-02-22T11:01:18.078Z,7.28
2018-02-22T11:02:53.390Z,7.98
2018-02-22T11:03:59.405Z,7.80
2018-02-22T11:05:05.313Z,7.76
2018-02-22T11:06:10.822Z,7.65
2018-02-22T11:07:16.227Z,7.12
2018-02-22T11:08:22.225Z,7.22
2018-02-22T11:09:27.711Z,7.29
2018-02-22T11:10:33.084Z,7.89
2018-02-22T11:11:38.367Z,7.43
2018-02-22T11:12:43.998Z,8.09
2018-02-22T11:13:49.819Z,7.76
2018-02-22T11:14:55.236Z,6.96
2018-02-22T11:16:00.587Z,7.05
2018-02-22T11:17:05.948Z,6.74
2018-02-22T11:18:11.391Z,5.67
2018-02-22T11:19:16.904Z,6.67
2018-02-22T11:20:23.191Z,7.16
2018-02-22T11:21:28.438Z,7.56
2018-02-22T11:22:33.597Z,7.96
2018-02-22T11:23:39.217Z,8.68
2018-02-22T11:24:44.586Z,8.11
2018-02-22T11:25:50.062Z,7.91
2018-02-22T11:26:55.580Z,8.14
2018-02-22T11:28:00.944Z,8.30
2018-02-22T11:29:06.577Z,8.79
2018-02-22T11:30:11.958Z,9.12
2018-02-22T11:31:17.307Z,8.84
2018-02-22T11:32:22.585Z,8.13
2018-02-22T11:33:28.178Z,8.55
2018-02-22T11:34:33.491Z,8.75
2018-02-22T11:35:38.610Z,9.05
2018-02-22T11:36:44.071Z,9.01
2018-02-22T11:37:52.733Z,9.34
2018-02-22T11:39:11.381Z,9.44
2018-02-22T11:40:23.984Z,8.74
2018-02-22T11:41:29.330Z,9.22
2018-02-22T11:42:34.509Z,9.07
2018-02-22T11:43:39.862Z,7.96
2018-02-22T11:44:45.212Z,8.19
2018-02-22T11:45:50.857Z,8.18
2018-02-22T11:46:56.292Z,7.96
2018-02-22T11:48:02.000Z,8.63
2018-02-22T11:49:07.556Z,8.65
2018-02-22T11:50:12.939Z,9.30
2018-02-22T11:51:19.181Z,9.17
2018-02-22T11:52:24.751Z,9.25
2018-02-22T11:53:30.747Z,9.40
2018-02-22T11:54:36.317Z,8.81
2018-02-22T11:55:41.671Z,8.68
2018-02-22T11:56:47.532Z,9.01
2018-02-22T11:57:53.469Z,9.40
2018-02-22T11:58:59.631Z,9.07
2018-02-22T12:00:05.707Z,8.73
2018-02-22T12:01:11.442Z,9.58
2018-02-22T12:02:17.246Z,9.95
2018-02-22T12:03:22.789Z,9.66
2018-02-22T12:04:29.082Z,9.23
2018-02-22T12:05:36.810Z,7.57
2018-02-22T12:06:42.297Z,6.84
2018-02-22T12:07:49.332Z,5.93
2018-02-22T12:08:56.559Z,6.36
2018-02-22T12:10:02.540Z,6.89
2018-02-22T12:11:10.214Z,7.67
2018-02-22T12:12:16.424Z,8.37
2018-02-22T12:13:22.323Z,9.49
2018-02-22T12:14:27.098Z,9.46
2018-02-22T12:15:31.983Z,9.18
2018-02-22T12:16:36.698Z,8.55
2018-02-22T12:17:41.746Z,8.24
2018-02-22T12:18:47.627Z,8.13
2018-02-22T12:19:52.467Z,7.86
2018-02-22T12:20:57.257Z,7.75
2018-02-22T12:22:02.171Z,7.70
2018-02-22T12:23:07.088Z,7.57
2018-02-22T12:24:12.504Z,8.15
2018-02-22T12:25:17.350Z,7.72
2018-02-22T12:26:22.689Z,6.59
2018-02-22T12:27:27.581Z,6.63
2018-02-22T12:28:32.622Z,6.35
2018-02-22T12:29:37.697Z,6.44
2018-02-22T12:30:43.019Z,6.35
2018-02-22T12:31:47.999Z,6.19
2018-02-22T12:32:52.808Z,5.33
2018-02-22T12:33:57.676Z,5.99
2018-02-22T12:35:02.447Z,6.43
2018-02-22T12:36:07.223Z,6.49
2018-02-22T12:37:12.526Z,6.61
2018-02-22T12:38:17.237Z,5.97
2018-02-22T12:39:22.286Z,5.22
2018-02-22T12:40:27.024Z,5.77
2018-02-22T12:41:31.731Z,6.18
2018-02-22T12:42:36.436Z,6.38
2018-02-22T12:43:41.443Z,5.94
2018-02-22T12:44:46.156Z,6.02
2018-02-22T12:45:51.006Z,5.82
2018-02-22T12:46:55.886Z,5.17
2018-02-22T12:48:00.711Z,4.73
2018-02-22T12:49:05.556Z,5.37
2018-02-22T12:50:11.753Z,6.04
2018-02-22T12:51:16.620Z,6.23
2018-02-22T12:52:21.530Z,6.39
2018-02-22T12:53:26.433Z,6.31
2018-02-22T12:54:31.330Z,5.88
2018-02-22T12:55:36.204Z,5.46
2018-02-22T12:56:41.568Z,5.76
2018-02-22T12:57:46.438Z,6.33
2018-02-22T12:58:51.383Z,5.75
2018-02-22T12:59:56.293Z,4.66
2018-02-22T13:01:01.482Z,5.40
2018-02-22T13:02:06.725Z,5.84
2018-02-22T13:03:11.532Z,5.57
2018-02-22T13:04:16.305Z,6.09
2018-02-22T13:05:21.166Z,6.45
2018-02-22T13:06:25.914Z,6.74
2018-02-22T13:07:30.828Z,6.54
2018-02-22T13:08:36.869Z,6.23
2018-02-22T13:09:42.453Z,5.58
2018-02-22T13:10:47.156Z,5.44
2018-02-22T13:11:51.869Z,5.94
2018-02-22T13:12:56.646Z,5.87
2018-02-22T13:14:02.100Z,6.77
2018-02-22T13:15:08.675Z,6.80
2018-02-22T13:16:13.579Z,6.79
2018-02-22T13:17:19.920Z,7.33
2018-02-22T13:18:28.734Z,7.39
2018-02-22T13:19:34.019Z,6.63
2018-02-22T13:20:39.423Z,6.20
2018-02-22T13:21:44.454Z,6.64
2018-02-22T13:22:51.805Z,6.95
2018-02-22T13:23:57.078Z,7.38
2018-02-22T13:25:02.540Z,7.42
2018-02-22T13:26:09.007Z,6.23
2018-02-22T13:27:15.196Z,5.60
2018-02-22T13:28:20.676Z,5.45
2018-02-22T13:29:25.871Z,5.21
2018-02-22T13:30:32.045Z,5.19
2018-02-22T13:31:37.151Z,5.47
2018-02-22T13:32:47.268Z,5.82
2018-02-22T13:33:57.833Z,6.21
2018-02-22T13:35:02.511Z,6.57
2018-02-22T13:36:07.631Z,5.85
2018-02-22T13:37:16.898Z,5.94
2018-02-22T13:38:27.559Z,4.58
2018-02-22T13:39:32.813Z,4.05
2018-02-22T13:40:37.726Z,4.63
2018-02-22T13:41:42.890Z,5.08
2018-02-22T13:42:47.770Z,5.70
2018-02-22T13:43:56.888Z,5.26
2018-02-22T13:45:06.911Z,5.13
2018-02-22T13:46:11.694Z,5.18
2018-02-22T13:47:16.400Z,5.01
2018-02-22T13:48:21.933Z,4.74
2018-02-22T13:49:32.030Z,4.56
2018-02-22T13:51:10.665Z,4.76
2018-02-22T13:52:15.589Z,5.59
2018-02-22T13:53:20.492Z,5.32
2018-02-22T13:54:25.319Z,5.44
2018-02-22T13:55:30.297Z,5.82
2018-02-22T13:57:38.913Z,6.11
2018-02-22T13:58:43.924Z,7.06
2018-02-22T13:59:48.862Z,7.33
2018-02-22T14:03:02.327Z,7.66
2018-02-22T14:04:07.189Z,7.17
2018-02-22T14:05:12.155Z,7.04
2018-02-22T14:06:16.953Z,7.06
2018-02-22T14:07:21.728Z,7.33
2018-02-22T14:08:30.834Z,7.60
2018-02-22T14:09:35.618Z,7.94
2018-02-22T14:10:40.627Z,7.93
2018-02-22T14:11:45.475Z,6.98
2018-02-22T14:12:50.351Z,7.10
2018-02-22T14:13:55.257Z,7.27
2018-02-22T14:15:00.706Z,7.34
2018-02-22T14:16:05.620Z,7.47